sensor_id;sensor_type;location;lat;lon;timestamp;P1;durP1;ratioP1;P2;durP2;ratioP2
77872;SDS011;67068;52.116;4.440;2024-02-23T00:01:35;4.17;;;0.97;;
77872;SDS011;67068;52.116;4.440;2024-02-23T00:04:00;0.23;;;0.13;;
77872;SDS011;67068;52.116;4.440;2024-02-23T00:06:27;0.85;;;0.40;;
77872;SDS011;67068;52.116;4.440;2024-02-23T00:08:53;2.37;;;0.63;;
77872;SDS011;67068;52.116;4.440;2024-02-23T00:11:19;1.02;;;0.50;;
77872;SDS011;67068;52.116;4.440;2024-02-23T00:13:45;3.30;;;0.80;;
77872;SDS011;67068;52.116;4.440;2024-02-23T00:16:10;5.00;;;1.20;;
77872;SDS011;67068;52.116;4.440;2024-02-23T00:18:36;0.00;;;0.00;;
77872;SDS011;67068;52.116;4.440;2024-02-23T00:21:01;1.23;;;0.50;;
77872;SDS011;67068;52.116;4.440;2024-02-23T00:23:27;3.63;;;0.40;;
77872;SDS011;67068;52.116;4.440;2024-02-23T00:25:53;1.85;;;0.45;;
77872;SDS011;67068;52.116;4.440;2024-02-23T00:28:19;1.98;;;0.60;;
77872;SDS011;67068;52.116;4.440;2024-02-23T00:30:44;4.50;;;0.53;;
77872;SDS011;67068;52.116;4.440;2024-02-23T00:33:09;0.50;;;0.43;;
77872;SDS011;67068;52.116;4.440;2024-02-23T00:35:35;3.17;;;0.33;;
77872;SDS011;67068;52.116;4.440;2024-02-23T00:38:00;1.00;;;0.20;;
77872;SDS011;67068;52.116;4.440;2024-02-23T00:40:25;1.10;;;0.38;;
77872;SDS011;67068;52.116;4.440;2024-02-23T00:42:51;2.20;;;0.60;;
77872;SDS011;67068;52.116;4.440;2024-02-23T00:45:16;1.10;;;0.30;;
77872;SDS011;67068;52.116;4.440;2024-02-23T00:47:42;6.73;;;1.00;;
77872;SDS011;67068;52.116;4.440;2024-02-23T00:50:08;1.85;;;0.52;;
77872;SDS011;67068;52.116;4.440;2024-02-23T00:52:33;4.97;;;0.80;;
77872;SDS011;67068;52.116;4.440;2024-02-23T00:54:59;12.85;;;1.40;;
77872;SDS011;67068;52.116;4.440;2024-02-23T00:57:24;2.47;;;0.50;;
77872;SDS011;67068;52.116;4.440;2024-02-23T00:59:54;4.20;;;0.80;;
77872;SDS011;67068;52.116;4.440;2024-02-23T01:02:19;2.75;;;0.70;;
77872;SDS011;67068;52.116;4.440;2024-02-23T01:04:45;0.53;;;0.40;;
77872;SDS011;67068;52.116;4.440;2024-02-23T01:07:10;4.60;;;0.83;;
77872;SDS011;67068;52.116;4.440;2024-02-23T01:09:35;2.97;;;0.40;;
77872;SDS011;67068;52.116;4.440;2024-02-23T01:12:00;1.40;;;0.40;;
77872;SDS011;67068;52.116;4.440;2024-02-23T01:14:26;0.73;;;0.20;;
77872;SDS011;67068;52.116;4.440;2024-02-23T01:16:51;0.90;;;0.50;;
77872;SDS011;67068;52.116;4.440;2024-02-23T01:19:16;0.93;;;0.50;;
77872;SDS011;67068;52.116;4.440;2024-02-23T01:21:43;1.08;;;0.30;;
77872;SDS011;67068;52.116;4.440;2024-02-23T01:24:08;4.00;;;0.77;;
77872;SDS011;67068;52.116;4.440;2024-02-23T01:26:33;1.60;;;0.43;;
77872;SDS011;67068;52.116;4.440;2024-02-23T01:28:59;1.03;;;0.27;;
77872;SDS011;67068;52.116;4.440;2024-02-23T01:31:24;1.30;;;0.30;;
77872;SDS011;67068;52.116;4.440;2024-02-23T01:33:49;3.33;;;0.63;;
77872;SDS011;67068;52.116;4.440;2024-02-23T01:36:15;8.38;;;1.45;;
77872;SDS011;67068;52.116;4.440;2024-02-23T01:38:40;9.47;;;1.70;;
77872;SDS011;67068;52.116;4.440;2024-02-23T01:41:07;4.07;;;0.70;;
77872;SDS011;67068;52.116;4.440;2024-02-23T01:43:33;3.53;;;0.40;;
77872;SDS011;67068;52.116;4.440;2024-02-23T01:45:58;2.83;;;0.40;;
77872;SDS011;67068;52.116;4.440;2024-02-23T01:48:23;1.00;;;0.32;;
77872;SDS011;67068;52.116;4.440;2024-02-23T01:50:49;3.03;;;0.83;;
77872;SDS011;67068;52.116;4.440;2024-02-23T01:53:14;3.47;;;1.23;;
77872;SDS011;67068;52.116;4.440;2024-02-23T01:55:40;6.13;;;1.33;;
77872;SDS011;67068;52.116;4.440;2024-02-23T01:58:05;1.63;;;0.40;;
77872;SDS011;67068;52.116;4.440;2024-02-23T02:00:31;0.80;;;0.32;;
77872;SDS011;67068;52.116;4.440;2024-02-23T02:02:56;4.03;;;1.17;;
77872;SDS011;67068;52.116;4.440;2024-02-23T02:05:22;7.40;;;0.80;;
77872;SDS011;67068;52.116;4.440;2024-02-23T02:07:47;1.90;;;0.57;;
77872;SDS011;67068;52.116;4.440;2024-02-23T02:10:15;0.43;;;0.25;;
77872;SDS011;67068;52.116;4.440;2024-02-23T02:12:41;2.97;;;0.65;;
77872;SDS011;67068;52.116;4.440;2024-02-23T02:15:06;2.53;;;0.57;;
77872;SDS011;67068;52.116;4.440;2024-02-23T02:17:32;6.22;;;1.05;;
77872;SDS011;67068;52.116;4.440;2024-02-23T02:19:58;2.67;;;0.60;;
77872;SDS011;67068;52.116;4.440;2024-02-23T02:22:24;2.40;;;0.77;;
77872;SDS011;67068;52.116;4.440;2024-02-23T02:24:49;7.13;;;1.40;;
77872;SDS011;67068;52.116;4.440;2024-02-23T02:27:15;2.42;;;0.80;;
77872;SDS011;67068;52.116;4.440;2024-02-23T02:29:40;4.68;;;0.95;;
77872;SDS011;67068;52.116;4.440;2024-02-23T02:32:05;8.43;;;1.00;;
77872;SDS011;67068;52.116;4.440;2024-02-23T02:34:31;3.60;;;0.77;;
77872;SDS011;67068;52.116;4.440;2024-02-23T02:36:56;2.63;;;0.30;;
77872;SDS011;67068;52.116;4.440;2024-02-23T02:39:21;1.10;;;0.30;;
77872;SDS011;67068;52.116;4.440;2024-02-23T02:41:49;5.53;;;1.07;;
77872;SDS011;67068;52.116;4.440;2024-02-23T02:44:14;2.95;;;0.82;;
77872;SDS011;67068;52.116;4.440;2024-02-23T02:46:40;2.90;;;0.67;;
77872;SDS011;67068;52.116;4.440;2024-02-23T02:49:05;0.88;;;0.30;;
77872;SDS011;67068;52.116;4.440;2024-02-23T02:51:31;4.57;;;0.95;;
77872;SDS011;67068;52.116;4.440;2024-02-23T02:53:56;5.35;;;0.60;;
77872;SDS011;67068;52.116;4.440;2024-02-23T02:56:22;5.22;;;0.60;;
77872;SDS011;67068;52.116;4.440;2024-02-23T02:58:47;0.43;;;0.20;;
77872;SDS011;67068;52.116;4.440;2024-02-23T03:01:12;0.27;;;0.20;;
77872;SDS011;67068;52.116;4.440;2024-02-23T03:03:37;1.73;;;0.70;;
77872;SDS011;67068;52.116;4.440;2024-02-23T03:06:03;5.77;;;0.93;;
77872;SDS011;67068;52.116;4.440;2024-02-23T03:08:28;2.53;;;0.43;;
77872;SDS011;67068;52.116;4.440;2024-02-23T03:10:53;2.23;;;0.43;;
77872;SDS011;67068;52.116;4.440;2024-02-23T03:13:18;1.03;;;0.67;;
77872;SDS011;67068;52.116;4.440;2024-02-23T03:15:44;3.10;;;0.50;;
77872;SDS011;67068;52.116;4.440;2024-02-23T03:18:09;1.67;;;0.33;;
77872;SDS011;67068;52.116;4.440;2024-02-23T03:20:35;3.78;;;0.45;;
77872;SDS011;67068;52.116;4.440;2024-02-23T03:23:00;1.50;;;0.30;;
77872;SDS011;67068;52.116;4.440;2024-02-23T03:25:28;5.95;;;1.02;;
77872;SDS011;67068;52.116;4.440;2024-02-23T03:27:56;2.85;;;0.60;;
77872;SDS011;67068;52.116;4.440;2024-02-23T03:30:21;1.47;;;0.27;;
77872;SDS011;67068;52.116;4.440;2024-02-23T03:32:47;3.47;;;0.50;;
77872;SDS011;67068;52.116;4.440;2024-02-23T03:35:12;1.57;;;0.47;;
77872;SDS011;67068;52.116;4.440;2024-02-23T03:37:37;7.03;;;1.03;;
77872;SDS011;67068;52.116;4.440;2024-02-23T03:40:03;5.83;;;1.20;;
77872;SDS011;67068;52.116;4.440;2024-02-23T03:42:29;2.83;;;0.73;;
77872;SDS011;67068;52.116;4.440;2024-02-23T03:44:55;3.15;;;0.82;;
77872;SDS011;67068;52.116;4.440;2024-02-23T03:47:20;2.47;;;0.83;;
77872;SDS011;67068;52.116;4.440;2024-02-23T03:49:45;3.50;;;0.67;;
77872;SDS011;67068;52.116;4.440;2024-02-23T03:52:11;6.80;;;0.73;;
77872;SDS011;67068;52.116;4.440;2024-02-23T03:54:37;4.00;;;0.63;;
77872;SDS011;67068;52.116;4.440;2024-02-23T03:57:02;4.53;;;0.77;;
77872;SDS011;67068;52.116;4.440;2024-02-23T03:59:28;2.17;;;0.40;;
77872;SDS011;67068;52.116;4.440;2024-02-23T04:01:53;2.80;;;0.30;;
77872;SDS011;67068;52.116;4.440;2024-02-23T04:04:18;6.30;;;0.73;;
77872;SDS011;67068;52.116;4.440;2024-02-23T04:06:44;2.43;;;0.80;;
77872;SDS011;67068;52.116;4.440;2024-02-23T04:09:09;1.03;;;0.27;;
77872;SDS011;67068;52.116;4.440;2024-02-23T04:11:34;1.67;;;0.52;;
77872;SDS011;67068;52.116;4.440;2024-02-23T04:14:00;1.83;;;0.70;;
77872;SDS011;67068;52.116;4.440;2024-02-23T04:16:28;6.15;;;0.85;;
77872;SDS011;67068;52.116;4.440;2024-02-23T04:18:54;2.28;;;0.30;;
77872;SDS011;67068;52.116;4.440;2024-02-23T04:21:19;2.17;;;0.57;;
77872;SDS011;67068;52.116;4.440;2024-02-23T04:23:44;6.78;;;0.70;;
77872;SDS011;67068;52.116;4.440;2024-02-23T04:26:10;2.47;;;0.93;;
77872;SDS011;67068;52.116;4.440;2024-02-23T04:28:37;1.43;;;0.50;;
77872;SDS011;67068;52.116;4.440;2024-02-23T04:31:03;1.73;;;0.50;;
77872;SDS011;67068;52.116;4.440;2024-02-23T04:33:28;3.00;;;0.93;;
77872;SDS011;67068;52.116;4.440;2024-02-23T04:35:53;4.50;;;1.03;;
77872;SDS011;67068;52.116;4.440;2024-02-23T04:38:18;3.73;;;0.90;;
77872;SDS011;67068;52.116;4.440;2024-02-23T04:40:44;1.83;;;0.30;;
77872;SDS011;67068;52.116;4.440;2024-02-23T04:43:09;0.20;;;0.20;;
77872;SDS011;67068;52.116;4.440;2024-02-23T04:45:34;0.43;;;0.30;;
77872;SDS011;67068;52.116;4.440;2024-02-23T04:47:59;1.73;;;0.20;;
77872;SDS011;67068;52.116;4.440;2024-02-23T04:50:24;0.87;;;0.33;;
77872;SDS011;67068;52.116;4.440;2024-02-23T04:52:50;6.27;;;0.70;;
77872;SDS011;67068;52.116;4.440;2024-02-23T04:55:15;1.33;;;0.37;;
77872;SDS011;67068;52.116;4.440;2024-02-23T04:57:40;1.73;;;0.47;;
77872;SDS011;67068;52.116;4.440;2024-02-23T05:00:06;1.63;;;0.40;;
77872;SDS011;67068;52.116;4.440;2024-02-23T05:02:32;0.90;;;0.43;;
77872;SDS011;67068;52.116;4.440;2024-02-23T05:05:03;3.58;;;0.68;;
77872;SDS011;67068;52.116;4.440;2024-02-23T05:07:32;0.10;;;0.10;;
77872;SDS011;67068;52.116;4.440;2024-02-23T05:09:58;1.75;;;0.50;;
77872;SDS011;67068;52.116;4.440;2024-02-23T05:12:23;1.60;;;0.37;;
77872;SDS011;67068;52.116;4.440;2024-02-23T05:14:48;0.27;;;0.27;;
77872;SDS011;67068;52.116;4.440;2024-02-23T05:17:13;0.50;;;0.27;;
77872;SDS011;67068;52.116;4.440;2024-02-23T05:19:39;1.27;;;0.40;;
77872;SDS011;67068;52.116;4.440;2024-02-23T05:22:04;1.70;;;0.40;;
77872;SDS011;67068;52.116;4.440;2024-02-23T05:24:29;0.80;;;0.60;;
77872;SDS011;67068;52.116;4.440;2024-02-23T05:26:54;3.30;;;0.60;;
77872;SDS011;67068;52.116;4.440;2024-02-23T05:29:19;3.47;;;0.50;;
77872;SDS011;67068;52.116;4.440;2024-02-23T05:31:51;4.70;;;0.77;;
77872;SDS011;67068;52.116;4.440;2024-02-23T05:34:16;4.78;;;0.60;;
77872;SDS011;67068;52.116;4.440;2024-02-23T05:36:43;2.15;;;0.45;;
77872;SDS011;67068;52.116;4.440;2024-02-23T05:39:08;2.83;;;1.05;;
77872;SDS011;67068;52.116;4.440;2024-02-23T05:41:34;4.07;;;1.20;;
77872;SDS011;67068;52.116;4.440;2024-02-23T05:44:00;2.33;;;0.50;;
77872;SDS011;67068;52.116;4.440;2024-02-23T05:46:25;0.50;;;0.13;;
77872;SDS011;67068;52.116;4.440;2024-02-23T05:48:50;2.83;;;0.70;;
77872;SDS011;67068;52.116;4.440;2024-02-23T05:51:15;5.50;;;0.77;;
77872;SDS011;67068;52.116;4.440;2024-02-23T05:53:41;1.40;;;0.47;;
77872;SDS011;67068;52.116;4.440;2024-02-23T05:56:06;4.20;;;0.93;;
77872;SDS011;67068;52.116;4.440;2024-02-23T05:58:31;5.40;;;1.00;;
77872;SDS011;67068;52.116;4.440;2024-02-23T06:00:57;3.50;;;1.02;;
77872;SDS011;67068;52.116;4.440;2024-02-23T06:03:22;2.22;;;0.90;;
77872;SDS011;67068;52.116;4.440;2024-02-23T06:05:47;3.10;;;0.80;;
77872;SDS011;67068;52.116;4.440;2024-02-23T06:08:13;2.17;;;0.80;;
77872;SDS011;67068;52.116;4.440;2024-02-23T06:10:38;3.20;;;0.60;;
77872;SDS011;67068;52.116;4.440;2024-02-23T06:13:03;4.13;;;0.90;;
77872;SDS011;67068;52.116;4.440;2024-02-23T06:15:28;2.97;;;0.95;;
77872;SDS011;67068;52.116;4.440;2024-02-23T06:17:54;4.17;;;1.40;;
77872;SDS011;67068;52.116;4.440;2024-02-23T06:20:19;4.43;;;1.00;;
77872;SDS011;67068;52.116;4.440;2024-02-23T06:22:45;4.15;;;1.25;;
77872;SDS011;67068;52.116;4.440;2024-02-23T06:25:10;7.00;;;2.10;;
77872;SDS011;67068;52.116;4.440;2024-02-23T06:27:36;5.03;;;1.52;;
77872;SDS011;67068;52.116;4.440;2024-02-23T06:30:01;3.53;;;1.03;;
77872;SDS011;67068;52.116;4.440;2024-02-23T06:32:27;4.80;;;1.20;;
77872;SDS011;67068;52.116;4.440;2024-02-23T06:34:52;4.10;;;1.20;;
77872;SDS011;67068;52.116;4.440;2024-02-23T06:37:17;6.93;;;1.47;;
77872;SDS011;67068;52.116;4.440;2024-02-23T06:39:42;7.57;;;2.00;;
77872;SDS011;67068;52.116;4.440;2024-02-23T06:42:09;5.03;;;1.10;;
77872;SDS011;67068;52.116;4.440;2024-02-23T06:44:34;7.32;;;1.50;;
77872;SDS011;67068;52.116;4.440;2024-02-23T06:47:00;5.03;;;1.37;;
77872;SDS011;67068;52.116;4.440;2024-02-23T06:49:25;5.30;;;1.13;;
77872;SDS011;67068;52.116;4.440;2024-02-23T06:51:50;3.93;;;1.20;;
77872;SDS011;67068;52.116;4.440;2024-02-23T06:54:15;5.63;;;0.98;;
77872;SDS011;67068;52.116;4.440;2024-02-23T06:56:41;3.05;;;0.70;;
77872;SDS011;67068;52.116;4.440;2024-02-23T06:59:06;1.67;;;0.63;;
77872;SDS011;67068;52.116;4.440;2024-02-23T07:01:32;3.83;;;0.90;;
77872;SDS011;67068;52.116;4.440;2024-02-23T07:04:00;4.68;;;1.33;;
77872;SDS011;67068;52.116;4.440;2024-02-23T07:06:25;7.10;;;1.47;;
77872;SDS011;67068;52.116;4.440;2024-02-23T07:08:50;6.53;;;1.60;;
77872;SDS011;67068;52.116;4.440;2024-02-23T07:11:15;5.57;;;1.50;;
77872;SDS011;67068;52.116;4.440;2024-02-23T07:13:44;5.20;;;1.55;;
77872;SDS011;67068;52.116;4.440;2024-02-23T07:16:09;3.95;;;0.77;;
77872;SDS011;67068;52.116;4.440;2024-02-23T07:18:35;5.47;;;1.40;;
77872;SDS011;67068;52.116;4.440;2024-02-23T07:21:00;5.97;;;1.77;;
77872;SDS011;67068;52.116;4.440;2024-02-23T07:23:25;8.32;;;1.60;;
77872;SDS011;67068;52.116;4.440;2024-02-23T07:25:51;5.90;;;1.53;;
77872;SDS011;67068;52.116;4.440;2024-02-23T07:28:16;8.63;;;2.05;;
77872;SDS011;67068;52.116;4.440;2024-02-23T07:30:44;6.72;;;1.48;;
77872;SDS011;67068;52.116;4.440;2024-02-23T07:33:10;4.70;;;1.00;;
77872;SDS011;67068;52.116;4.440;2024-02-23T07:35:35;4.78;;;1.30;;
77872;SDS011;67068;52.116;4.440;2024-02-23T07:38:00;4.67;;;1.63;;
77872;SDS011;67068;52.116;4.440;2024-02-23T07:40:25;8.67;;;1.70;;
77872;SDS011;67068;52.116;4.440;2024-02-23T07:42:51;4.43;;;1.40;;
77872;SDS011;67068;52.116;4.440;2024-02-23T07:45:16;5.65;;;1.70;;
77872;SDS011;67068;52.116;4.440;2024-02-23T07:47:41;5.90;;;1.40;;
77872;SDS011;67068;52.116;4.440;2024-02-23T07:50:07;8.87;;;2.03;;
77872;SDS011;67068;52.116;4.440;2024-02-23T07:52:33;6.53;;;1.55;;
77872;SDS011;67068;52.116;4.440;2024-02-23T07:54:58;6.30;;;1.33;;
77872;SDS011;67068;52.116;4.440;2024-02-23T07:57:25;5.35;;;1.30;;
77872;SDS011;67068;52.116;4.440;2024-02-23T07:59:50;4.93;;;1.70;;
77872;SDS011;67068;52.116;4.440;2024-02-23T08:02:15;5.37;;;1.30;;
77872;SDS011;67068;52.116;4.440;2024-02-23T08:04:40;2.87;;;0.93;;
77872;SDS011;67068;52.116;4.440;2024-02-23T08:07:07;7.47;;;1.67;;
77872;SDS011;67068;52.116;4.440;2024-02-23T08:09:32;7.20;;;2.03;;
77872;SDS011;67068;52.116;4.440;2024-02-23T08:11:57;8.23;;;1.77;;
77872;SDS011;67068;52.116;4.440;2024-02-23T08:14:23;3.43;;;1.10;;
77872;SDS011;67068;52.116;4.440;2024-02-23T08:16:48;3.20;;;1.20;;
77872;SDS011;67068;52.116;4.440;2024-02-23T08:19:14;6.25;;;1.98;;
77872;SDS011;67068;52.116;4.440;2024-02-23T08:21:40;3.00;;;1.20;;
77872;SDS011;67068;52.116;4.440;2024-02-23T08:24:06;7.90;;;1.92;;
77872;SDS011;67068;52.116;4.440;2024-02-23T08:26:32;9.63;;;2.05;;
77872;SDS011;67068;52.116;4.440;2024-02-23T08:28:58;3.20;;;1.30;;
77872;SDS011;67068;52.116;4.440;2024-02-23T08:31:24;5.10;;;1.30;;
77872;SDS011;67068;52.116;4.440;2024-02-23T08:33:49;8.10;;;1.63;;
77872;SDS011;67068;52.116;4.440;2024-02-23T08:36:14;4.13;;;0.90;;
77872;SDS011;67068;52.116;4.440;2024-02-23T08:38:40;7.45;;;1.65;;
77872;SDS011;67068;52.116;4.440;2024-02-23T08:41:05;5.57;;;1.13;;
77872;SDS011;67068;52.116;4.440;2024-02-23T08:43:30;6.00;;;1.33;;
77872;SDS011;67068;52.116;4.440;2024-02-23T08:45:56;4.70;;;1.07;;
77872;SDS011;67068;52.116;4.440;2024-02-23T08:48:21;3.03;;;1.00;;
77872;SDS011;67068;52.116;4.440;2024-02-23T08:50:46;4.20;;;1.00;;
77872;SDS011;67068;52.116;4.440;2024-02-23T08:53:11;4.07;;;1.30;;
77872;SDS011;67068;52.116;4.440;2024-02-23T08:55:37;5.27;;;1.07;;
77872;SDS011;67068;52.116;4.440;2024-02-23T08:58:02;4.40;;;1.30;;
77872;SDS011;67068;52.116;4.440;2024-02-23T09:00:27;5.53;;;1.30;;
77872;SDS011;67068;52.116;4.440;2024-02-23T09:02:53;3.53;;;1.10;;
77872;SDS011;67068;52.116;4.440;2024-02-23T09:05:18;5.17;;;1.20;;
77872;SDS011;67068;52.116;4.440;2024-02-23T09:07:44;5.05;;;1.20;;
77872;SDS011;67068;52.116;4.440;2024-02-23T09:10:10;8.00;;;1.40;;
77872;SDS011;67068;52.116;4.440;2024-02-23T09:12:36;7.47;;;1.37;;
77872;SDS011;67068;52.116;4.440;2024-02-23T09:15:02;5.57;;;1.52;;
77872;SDS011;67068;52.116;4.440;2024-02-23T09:17:27;5.15;;;1.20;;
77872;SDS011;67068;52.116;4.440;2024-02-23T09:19:52;5.60;;;1.30;;
77872;SDS011;67068;52.116;4.440;2024-02-23T09:22:18;1.00;;;0.60;;
77872;SDS011;67068;52.116;4.440;2024-02-23T09:24:43;3.70;;;1.00;;
77872;SDS011;67068;52.116;4.440;2024-02-23T09:27:09;2.22;;;0.88;;
77872;SDS011;67068;52.116;4.440;2024-02-23T09:29:34;4.53;;;1.03;;
77872;SDS011;67068;52.116;4.440;2024-02-23T09:31:59;4.18;;;0.65;;
77872;SDS011;67068;52.116;4.440;2024-02-23T09:34:25;3.92;;;0.85;;
77872;SDS011;67068;52.116;4.440;2024-02-23T09:36:50;4.47;;;1.07;;
77872;SDS011;67068;52.116;4.440;2024-02-23T09:39:18;3.40;;;0.80;;
77872;SDS011;67068;52.116;4.440;2024-02-23T09:41:45;6.15;;;1.63;;
77872;SDS011;67068;52.116;4.440;2024-02-23T09:44:10;5.20;;;1.13;;
77872;SDS011;67068;52.116;4.440;2024-02-23T09:46:39;2.22;;;0.68;;
77872;SDS011;67068;52.116;4.440;2024-02-23T09:49:05;3.65;;;0.60;;
77872;SDS011;67068;52.116;4.440;2024-02-23T09:51:31;5.70;;;1.75;;
77872;SDS011;67068;52.116;4.440;2024-02-23T09:53:58;2.85;;;0.77;;
77872;SDS011;67068;52.116;4.440;2024-02-23T09:56:24;2.43;;;0.70;;
77872;SDS011;67068;52.116;4.440;2024-02-23T09:58:51;3.22;;;0.52;;
77872;SDS011;67068;52.116;4.440;2024-02-23T10:01:19;1.48;;;0.40;;
77872;SDS011;67068;52.116;4.440;2024-02-23T10:03:59;5.32;;;0.73;;
77872;SDS011;67068;52.116;4.440;2024-02-23T10:06:25;0.88;;;0.47;;
77872;SDS011;67068;52.116;4.440;2024-02-23T10:08:50;2.08;;;0.50;;
77872;SDS011;67068;52.116;4.440;2024-02-23T10:11:19;1.90;;;0.60;;
77872;SDS011;67068;52.116;4.440;2024-02-23T10:13:46;5.55;;;0.73;;
77872;SDS011;67068;52.116;4.440;2024-02-23T10:16:15;2.67;;;0.65;;
77872;SDS011;67068;52.116;4.440;2024-02-23T10:18:43;3.17;;;0.68;;
77872;SDS011;67068;52.116;4.440;2024-02-23T10:21:08;3.30;;;0.70;;
77872;SDS011;67068;52.116;4.440;2024-02-23T10:23:33;2.47;;;0.50;;
77872;SDS011;67068;52.116;4.440;2024-02-23T10:25:59;2.77;;;0.77;;
77872;SDS011;67068;52.116;4.440;2024-02-23T10:28:24;0.82;;;0.40;;
77872;SDS011;67068;52.116;4.440;2024-02-23T10:30:49;2.15;;;0.70;;
77872;SDS011;67068;52.116;4.440;2024-02-23T10:33:14;1.63;;;0.73;;
77872;SDS011;67068;52.116;4.440;2024-02-23T10:35:40;1.33;;;0.30;;
77872;SDS011;67068;52.116;4.440;2024-02-23T10:38:07;2.15;;;0.90;;
77872;SDS011;67068;52.116;4.440;2024-02-23T10:40:34;4.78;;;0.63;;
77872;SDS011;67068;52.116;4.440;2024-02-23T10:43:05;6.15;;;1.05;;
77872;SDS011;67068;52.116;4.440;2024-02-23T10:45:35;4.13;;;0.75;;
77872;SDS011;67068;52.116;4.440;2024-02-23T10:48:01;5.28;;;1.13;;
77872;SDS011;67068;52.116;4.440;2024-02-23T10:50:27;4.05;;;0.77;;
77872;SDS011;67068;52.116;4.440;2024-02-23T10:52:52;1.27;;;0.50;;
77872;SDS011;67068;52.116;4.440;2024-02-23T10:55:18;1.08;;;0.38;;
77872;SDS011;67068;52.116;4.440;2024-02-23T10:57:43;1.35;;;0.47;;
77872;SDS011;67068;52.116;4.440;2024-02-23T11:00:09;1.17;;;0.57;;
77872;SDS011;67068;52.116;4.440;2024-02-23T11:02:40;3.10;;;0.70;;
77872;SDS011;67068;52.116;4.440;2024-02-23T11:05:06;2.72;;;0.73;;
77872;SDS011;67068;52.116;4.440;2024-02-23T11:07:37;5.63;;;1.00;;
77872;SDS011;67068;52.116;4.440;2024-02-23T11:10:03;1.40;;;0.55;;
77872;SDS011;67068;52.116;4.440;2024-02-23T11:12:29;1.85;;;0.73;;
77872;SDS011;67068;52.116;4.440;2024-02-23T11:14:58;3.67;;;1.30;;
77872;SDS011;67068;52.116;4.440;2024-02-23T11:17:26;6.30;;;1.00;;
77872;SDS011;67068;52.116;4.440;2024-02-23T11:19:51;3.15;;;0.75;;
77872;SDS011;67068;52.116;4.440;2024-02-23T11:22:32;0.73;;;0.27;;
77872;SDS011;67068;52.116;4.440;2024-02-23T11:25:02;2.40;;;0.80;;
77872;SDS011;67068;52.116;4.440;2024-02-23T11:27:32;1.20;;;0.55;;
77872;SDS011;67068;52.116;4.440;2024-02-23T11:30:04;5.07;;;0.90;;
77872;SDS011;67068;52.116;4.440;2024-02-23T11:32:46;2.33;;;0.50;;
77872;SDS011;67068;52.116;4.440;2024-02-23T11:35:12;2.60;;;0.50;;
77872;SDS011;67068;52.116;4.440;2024-02-23T11:37:47;1.83;;;0.52;;
77872;SDS011;67068;52.116;4.440;2024-02-23T11:40:13;1.85;;;0.57;;
77872;SDS011;67068;52.116;4.440;2024-02-23T11:42:42;1.65;;;0.65;;
77872;SDS011;67068;52.116;4.440;2024-02-23T11:45:08;4.60;;;0.80;;
77872;SDS011;67068;52.116;4.440;2024-02-23T11:47:33;2.22;;;0.70;;
77872;SDS011;67068;52.116;4.440;2024-02-23T11:49:59;5.63;;;0.90;;
77872;SDS011;67068;52.116;4.440;2024-02-23T11:52:24;3.23;;;0.90;;
77872;SDS011;67068;52.116;4.440;2024-02-23T11:54:50;2.50;;;0.55;;
77872;SDS011;67068;52.116;4.440;2024-02-23T11:57:15;1.87;;;0.60;;
77872;SDS011;67068;52.116;4.440;2024-02-23T11:59:41;0.93;;;0.57;;
77872;SDS011;67068;52.116;4.440;2024-02-23T12:02:06;2.40;;;0.40;;
77872;SDS011;67068;52.116;4.440;2024-02-23T12:04:32;3.47;;;0.63;;
77872;SDS011;67068;52.116;4.440;2024-02-23T12:06:57;2.97;;;0.90;;
77872;SDS011;67068;52.116;4.440;2024-02-23T12:09:23;2.45;;;0.40;;
77872;SDS011;67068;52.116;4.440;2024-02-23T12:11:48;1.13;;;0.60;;
77872;SDS011;67068;52.116;4.440;2024-02-23T12:14:13;4.13;;;0.93;;
77872;SDS011;67068;52.116;4.440;2024-02-23T12:16:39;4.77;;;0.80;;
77872;SDS011;67068;52.116;4.440;2024-02-23T12:19:07;5.15;;;1.00;;
77872;SDS011;67068;52.116;4.440;2024-02-23T12:21:34;1.15;;;0.50;;
77872;SDS011;67068;52.116;4.440;2024-02-23T12:23:59;5.05;;;1.02;;
77872;SDS011;67068;52.116;4.440;2024-02-23T12:26:24;5.10;;;0.90;;
77872;SDS011;67068;52.116;4.440;2024-02-23T12:28:49;1.57;;;0.50;;
77872;SDS011;67068;52.116;4.440;2024-02-23T12:31:15;3.27;;;0.67;;
77872;SDS011;67068;52.116;4.440;2024-02-23T12:33:40;3.50;;;0.70;;
77872;SDS011;67068;52.116;4.440;2024-02-23T12:36:06;3.03;;;0.65;;
77872;SDS011;67068;52.116;4.440;2024-02-23T12:38:32;2.25;;;0.60;;
77872;SDS011;67068;52.116;4.440;2024-02-23T12:40:57;3.40;;;0.80;;
77872;SDS011;67068;52.116;4.440;2024-02-23T12:43:23;2.65;;;0.80;;
77872;SDS011;67068;52.116;4.440;2024-02-23T12:45:53;5.47;;;0.82;;
77872;SDS011;67068;52.116;4.440;2024-02-23T12:48:19;2.88;;;0.55;;
77872;SDS011;67068;52.116;4.440;2024-02-23T12:50:45;0.82;;;0.47;;
77872;SDS011;67068;52.116;4.440;2024-02-23T12:53:12;3.58;;;0.98;;
77872;SDS011;67068;52.116;4.440;2024-02-23T12:55:54;2.55;;;0.60;;
77872;SDS011;67068;52.116;4.440;2024-02-23T12:58:19;2.67;;;0.60;;
77872;SDS011;67068;52.116;4.440;2024-02-23T13:00:45;2.60;;;0.80;;
77872;SDS011;67068;52.116;4.440;2024-02-23T13:03:10;4.50;;;0.60;;
77872;SDS011;67068;52.116;4.440;2024-02-23T13:05:35;1.90;;;0.70;;
77872;SDS011;67068;52.116;4.440;2024-02-23T13:08:00;1.75;;;0.50;;
77872;SDS011;67068;52.116;4.440;2024-02-23T13:10:26;6.43;;;1.00;;
77872;SDS011;67068;52.116;4.440;2024-02-23T13:12:51;5.43;;;0.70;;
77872;SDS011;67068;52.116;4.440;2024-02-23T13:15:16;3.17;;;0.57;;
77872;SDS011;67068;52.116;4.440;2024-02-23T13:17:41;5.33;;;0.90;;
77872;SDS011;67068;52.116;4.440;2024-02-23T13:20:07;3.50;;;1.17;;
77872;SDS011;67068;52.116;4.440;2024-02-23T13:22:32;2.50;;;0.60;;
77872;SDS011;67068;52.116;4.440;2024-02-23T13:24:57;4.33;;;1.03;;
77872;SDS011;67068;52.116;4.440;2024-02-23T13:27:23;3.30;;;0.70;;
77872;SDS011;67068;52.116;4.440;2024-02-23T13:29:48;3.93;;;0.60;;
77872;SDS011;67068;52.116;4.440;2024-02-23T13:32:13;2.40;;;0.55;;
77872;SDS011;67068;52.116;4.440;2024-02-23T13:34:40;2.17;;;0.73;;
77872;SDS011;67068;52.116;4.440;2024-02-23T13:37:05;1.40;;;0.50;;
77872;SDS011;67068;52.116;4.440;2024-02-23T13:39:30;2.70;;;0.50;;
77872;SDS011;67068;52.116;4.440;2024-02-23T13:41:57;2.67;;;0.40;;
77872;SDS011;67068;52.116;4.440;2024-02-23T13:44:22;3.63;;;0.63;;
77872;SDS011;67068;52.116;4.440;2024-02-23T13:46:47;0.57;;;0.40;;
77872;SDS011;67068;52.116;4.440;2024-02-23T13:49:13;0.97;;;0.27;;
77872;SDS011;67068;52.116;4.440;2024-02-23T13:51:39;2.92;;;0.38;;
77872;SDS011;67068;52.116;4.440;2024-02-23T13:54:04;2.95;;;1.05;;
77872;SDS011;67068;52.116;4.440;2024-02-23T13:56:30;0.22;;;0.20;;
77872;SDS011;67068;52.116;4.440;2024-02-23T13:58:55;2.47;;;0.60;;
77872;SDS011;67068;52.116;4.440;2024-02-23T14:01:20;1.07;;;0.10;;
77872;SDS011;67068;52.116;4.440;2024-02-23T14:03:45;2.17;;;0.47;;
77872;SDS011;67068;52.116;4.440;2024-02-23T14:06:11;1.47;;;0.40;;
77872;SDS011;67068;52.116;4.440;2024-02-23T14:08:36;1.93;;;0.60;;
77872;SDS011;67068;52.116;4.440;2024-02-23T14:11:02;1.58;;;0.40;;
77872;SDS011;67068;52.116;4.440;2024-02-23T14:13:28;1.92;;;0.73;;
77872;SDS011;67068;52.116;4.440;2024-02-23T14:15:53;3.28;;;0.40;;
77872;SDS011;67068;52.116;4.440;2024-02-23T14:18:19;1.27;;;0.30;;
77872;SDS011;67068;52.116;4.440;2024-02-23T14:20:44;0.60;;;0.40;;
77872;SDS011;67068;52.116;4.440;2024-02-23T14:23:09;2.10;;;0.60;;
77872;SDS011;67068;52.116;4.440;2024-02-23T14:25:36;2.97;;;0.60;;
77872;SDS011;67068;52.116;4.440;2024-02-23T14:28:01;1.88;;;0.43;;
77872;SDS011;67068;52.116;4.440;2024-02-23T14:30:26;5.43;;;0.57;;
77872;SDS011;67068;52.116;4.440;2024-02-23T14:32:52;2.83;;;0.70;;
77872;SDS011;67068;52.116;4.440;2024-02-23T14:35:17;5.00;;;0.70;;
77872;SDS011;67068;52.116;4.440;2024-02-23T14:37:42;3.87;;;0.93;;
77872;SDS011;67068;52.116;4.440;2024-02-23T14:40:07;2.23;;;0.43;;